sensor_id;sensor_type;location;lat;lon;timestamp;pressure;altitude;pressure_sealevel;temperature;humidity
54978;BME280;40873;47.522;19.106;2022-12-13T00:01:27;99996.31;;;-2.37;100.00
54978;BME280;40873;47.522;19.106;2022-12-13T00:03:56;99997.19;;;-2.38;100.00
54978;BME280;40873;47.522;19.106;2022-12-13T00:06:23;100005.78;;;-2.37;100.00
54978;BME280;40873;47.522;19.106;2022-12-13T00:08:52;99998.91;;;-2.37;100.00
54978;BME280;40873;47.522;19.106;2022-12-13T00:11:19;99998.13;;;-2.43;100.00
54978;BME280;40873;47.522;19.106;2022-12-13T00:13:46;100006.81;;;-2.49;100.00
54978;BME280;40873;47.522;19.106;2022-12-13T00:16:22;100006.81;;;-2.49;100.00
54978;BME280;40873;47.522;19.106;2022-12-13T00:18:52;100005.03;;;-2.42;100.00
54978;BME280;40873;47.522;19.106;2022-12-13T00:21:23;100008.56;;;-2.50;100.00
54978;BME280;40873;47.522;19.106;2022-12-13T00:23:50;100002.59;;;-2.55;100.00
54978;BME280;40873;47.522;19.106;2022-12-13T00:26:22;100003.50;;;-2.59;100.00
54978;BME280;40873;47.522;19.106;2022-12-13T00:28:50;99995.72;;;-2.56;100.00
54978;BME280;40873;47.522;19.106;2022-12-13T00:31:20;99999.00;;;-2.43;100.00
54978;BME280;40873;47.522;19.106;2022-12-13T00:34:08;100002.72;;;-2.64;100.00
54978;BME280;40873;47.522;19.106;2022-12-13T00:36:35;100004.34;;;-2.57;100.00
54978;BME280;40873;47.522;19.106;2022-12-13T00:39:02;100009.34;;;-2.43;100.00
54978;BME280;40873;47.522;19.106;2022-12-13T00:41:34;100010.34;;;-2.55;100.00
54978;BME280;40873;47.522;19.106;2022-12-13T00:44:03;100013.81;;;-2.56;100.00
54978;BME280;40873;47.522;19.106;2022-12-13T00:46:31;100010.41;;;-2.61;100.00
54978;BME280;40873;47.522;19.106;2022-12-13T00:48:59;100015.66;;;-2.68;100.00
54978;BME280;40873;47.522;19.106;2022-12-13T00:51:28;100014.69;;;-2.60;100.00
54978;BME280;40873;47.522;19.106;2022-12-13T00:53:57;100021.66;;;-2.63;100.00
54978;BME280;40873;47.522;19.106;2022-12-13T00:56:26;100025.06;;;-2.61;100.00
54978;BME280;40873;47.522;19.106;2022-12-13T00:58:55;100023.38;;;-2.64;100.00
54978;BME280;40873;47.522;19.106;2022-12-13T01:01:27;100022.47;;;-2.61;100.00
54978;BME280;40873;47.522;19.106;2022-12-13T01:03:56;100030.25;;;-2.63;100.00
54978;BME280;40873;47.522;19.106;2022-12-13T01:06:42;100032.91;;;-2.72;100.00
54978;BME280;40873;47.522;19.106;2022-12-13T01:09:19;100026.84;;;-2.68;100.00
54978;BME280;40873;47.522;19.106;2022-12-13T01:11:47;100027.69;;;-2.66;100.00
54978;BME280;40873;47.522;19.106;2022-12-13T01:14:15;100030.44;;;-2.81;100.00
54978;BME280;40873;47.522;19.106;2022-12-13T01:16:42;100027.75;;;-2.72;100.00
54978;BME280;40873;47.522;19.106;2022-12-13T01:19:09;100038.78;;;-2.59;100.00
54978;BME280;40873;47.522;19.106;2022-12-13T01:21:36;100037.22;;;-2.71;100.00
54978;BME280;40873;47.522;19.106;2022-12-13T01:24:05;100031.19;;;-2.73;100.00
54978;BME280;40873;47.522;19.106;2022-12-13T01:26:32;100039.00;;;-2.76;100.00
54978;BME280;40873;47.522;19.106;2022-12-13T01:29:00;100032.97;;;-2.75;100.00
54978;BME280;40873;47.522;19.106;2022-12-13T01:31:27;100035.53;;;-2.75;100.00
54978;BME280;40873;47.522;19.106;2022-12-13T01:33:54;100041.41;;;-2.61;100.00
54978;BME280;40873;47.522;19.106;2022-12-13T01:36:22;100038.00;;;-2.66;100.00
54978;BME280;40873;47.522;19.106;2022-12-13T01:38:57;100034.66;;;-2.74;100.00
54978;BME280;40873;47.522;19.106;2022-12-13T01:41:26;100038.94;;;-2.70;100.00
54978;BME280;40873;47.522;19.106;2022-12-13T01:46:59;100047.66;;;-2.82;100.00
54978;BME280;40873;47.522;19.106;2022-12-13T01:49:26;100045.03;;;-2.79;100.00
54978;BME280;40873;47.522;19.106;2022-12-13T01:51:57;100049.41;;;-2.84;100.00
54978;BME280;40873;47.522;19.106;2022-12-13T01:54:32;100051.94;;;-2.81;100.00
54978;BME280;40873;47.522;19.106;2022-12-13T01:57:03;100066.53;;;-2.77;100.00
54978;BME280;40873;47.522;19.106;2022-12-13T01:59:33;100073.44;;;-2.79;100.00
54978;BME280;40873;47.522;19.106;2022-12-13T02:02:01;100074.38;;;-2.84;100.00
54978;BME280;40873;47.522;19.106;2022-12-13T02:04:35;100070.97;;;-2.88;100.00
54978;BME280;40873;47.522;19.106;2022-12-13T02:07:14;100069.28;;;-2.90;100.00
54978;BME280;40873;47.522;19.106;2022-12-13T02:09:54;100070.06;;;-2.87;100.00
54978;BME280;40873;47.522;19.106;2022-12-13T02:12:28;100070.09;;;-2.88;100.00
54978;BME280;40873;47.522;19.106;2022-12-13T02:15:03;100059.66;;;-2.79;100.00
54978;BME280;40873;47.522;19.106;2022-12-13T02:31:53;100048.34;;;-2.66;100.00
54978;BME280;40873;47.522;19.106;2022-12-13T02:34:35;100045.00;;;-2.76;100.00
54978;BME280;40873;47.522;19.106;2022-12-13T02:37:29;100057.03;;;-2.73;100.00
54978;BME280;40873;47.522;19.106;2022-12-13T02:40:09;100065.69;;;-2.77;100.00
54978;BME280;40873;47.522;19.106;2022-12-13T02:43:02;100060.63;;;-2.85;100.00
54978;BME280;40873;47.522;19.106;2022-12-13T02:45:37;100070.03;;;-2.81;100.00
54978;BME280;40873;47.522;19.106;2022-12-13T02:48:08;100061.44;;;-2.83;100.00
54978;BME280;40873;47.522;19.106;2022-12-13T02:50:36;100063.09;;;-2.76;100.00
54978;BME280;40873;47.522;19.106;2022-12-13T02:53:06;100065.78;;;-2.85;100.00
54978;BME280;40873;47.522;19.106;2022-12-13T02:55:37;100062.25;;;-2.79;100.00
54978;BME280;40873;47.522;19.106;2022-12-13T02:58:11;100064.88;;;-2.82;100.00
54978;BME280;40873;47.522;19.106;2022-12-13T03:04:10;100063.03;;;-2.72;100.00
54978;BME280;40873;47.522;19.106;2022-12-13T03:09:39;100066.47;;;-2.69;100.00
54978;BME280;40873;47.522;19.106;2022-12-13T03:17:36;100077.81;;;-2.85;100.00
54978;BME280;40873;47.522;19.106;2022-12-13T03:20:08;100070.97;;;-2.88;100.00
54978;BME280;40873;47.522;19.106;2022-12-13T03:22:48;100072.63;;;-2.82;100.00
54978;BME280;40873;47.522;19.106;2022-12-13T03:25:15;100070.06;;;-2.87;100.00
54978;BME280;40873;47.522;19.106;2022-12-13T03:28:04;100073.66;;;-2.98;100.00
54978;BME280;40873;47.522;19.106;2022-12-13T03:30:32;100073.66;;;-3.01;100.00
54978;BME280;40873;47.522;19.106;2022-12-13T03:32:59;100072.84;;;-3.04;100.00
54978;BME280;40873;47.522;19.106;2022-12-13T03:35:27;100078.97;;;-3.15;100.00
54978;BME280;40873;47.522;19.106;2022-12-13T03:38:11;100075.47;;;-3.10;100.00
54978;BME280;40873;47.522;19.106;2022-12-13T03:41:10;100074.72;;;-3.19;100.00
54978;BME280;40873;47.522;19.106;2022-12-13T03:43:38;100082.50;;;-3.28;100.00
54978;BME280;40873;47.522;19.106;2022-12-13T03:46:07;100074.78;;;-3.28;100.00
54978;BME280;40873;47.522;19.106;2022-12-13T03:48:34;100083.38;;;-3.26;100.00
54978;BME280;40873;47.522;19.106;2022-12-13T03:51:02;100080.00;;;-3.33;100.00
54978;BME280;40873;47.522;19.106;2022-12-13T03:53:29;100081.75;;;-3.38;100.00
54978;BME280;40873;47.522;19.106;2022-12-13T03:56:04;100083.38;;;-3.28;100.00
54978;BME280;40873;47.522;19.106;2022-12-13T03:58:33;100086.75;;;-3.20;100.00
54978;BME280;40873;47.522;19.106;2022-12-13T04:01:13;100082.34;;;-3.06;100.00
54978;BME280;40873;47.522;19.106;2022-12-13T04:03:42;100081.47;;;-3.08;100.00
54978;BME280;40873;47.522;19.106;2022-12-13T04:06:10;100078.03;;;-3.05;100.00
54978;BME280;40873;47.522;19.106;2022-12-13T04:08:47;100083.19;;;-3.07;100.00
54978;BME280;40873;47.522;19.106;2022-12-13T04:11:17;100087.44;;;-3.03;100.00
54978;BME280;40873;47.522;19.106;2022-12-13T04:14:12;100087.50;;;-3.06;100.00
54978;BME280;40873;47.522;19.106;2022-12-13T04:16:50;100099.47;;;-2.98;100.00
54978;BME280;40873;47.522;19.106;2022-12-13T04:19:17;100095.16;;;-3.01;100.00
54978;BME280;40873;47.522;19.106;2022-12-13T04:21:51;100092.59;;;-3.01;100.00
54978;BME280;40873;47.522;19.106;2022-12-13T04:24:17;100094.38;;;-3.05;100.00
54978;BME280;40873;47.522;19.106;2022-12-13T04:26:45;100094.34;;;-3.06;100.00
54978;BME280;40873;47.522;19.106;2022-12-13T04:29:12;100104.69;;;-3.08;100.00
54978;BME280;40873;47.522;19.106;2022-12-13T04:31:39;100102.09;;;-3.03;100.00
54978;BME280;40873;47.522;19.106;2022-12-13T04:34:06;100111.59;;;-3.10;100.00
54978;BME280;40873;47.522;19.106;2022-12-13T04:36:33;100109.91;;;-3.12;100.00
54978;BME280;40873;47.522;19.106;2022-12-13T04:39:01;100114.22;;;-3.13;100.00
54978;BME280;40873;47.522;19.106;2022-12-13T04:41:48;100109.91;;;-3.14;100.00
54978;BME280;40873;47.522;19.106;2022-12-13T04:44:17;100106.53;;;-3.19;100.00
54978;BME280;40873;47.522;19.106;2022-12-13T04:46:55;100106.53;;;-3.19;100.00
54978;BME280;40873;47.522;19.106;2022-12-13T04:49:28;100104.88;;;-3.29;100.00
54978;BME280;40873;47.522;19.106;2022-12-13T04:51:56;100112.63;;;-3.29;100.00
54978;BME280;40873;47.522;19.106;2022-12-13T04:54:27;100111.00;;;-3.41;100.00
54978;BME280;40873;47.522;19.106;2022-12-13T04:57:04;100103.22;;;-3.33;100.00
54978;BME280;40873;47.522;19.106;2022-12-13T04:59:32;100106.66;;;-3.36;100.00
54978;BME280;40873;47.522;19.106;2022-12-13T05:01:59;100097.25;;;-3.44;100.00
54978;BME280;40873;47.522;19.106;2022-12-13T05:04:26;100095.59;;;-3.51;100.00
54978;BME280;40873;47.522;19.106;2022-12-13T05:06:58;100103.38;;;-3.54;100.00
54978;BME280;40873;47.522;19.106;2022-12-13T05:09:25;100104.19;;;-3.51;100.00
54978;BME280;40873;47.522;19.106;2022-12-13T05:11:52;100099.97;;;-3.60;100.00
54978;BME280;40873;47.522;19.106;2022-12-13T05:14:29;100099.09;;;-3.62;100.00
54978;BME280;40873;47.522;19.106;2022-12-13T05:16:56;100104.31;;;-3.69;100.00
54978;BME280;40873;47.522;19.106;2022-12-13T05:19:23;100093.94;;;-3.59;100.00
54978;BME280;40873;47.522;19.106;2022-12-13T05:21:58;100094.81;;;-3.64;100.00
54978;BME280;40873;47.522;19.106;2022-12-13T05:24:29;100101.81;;;-3.83;100.00
54978;BME280;40873;47.522;19.106;2022-12-13T05:26:56;100099.16;;;-3.71;100.00
54978;BME280;40873;47.522;19.106;2022-12-13T05:29:23;100098.34;;;-3.77;100.00
54978;BME280;40873;47.522;19.106;2022-12-13T05:31:50;100100.91;;;-3.74;100.00
54978;BME280;40873;47.522;19.106;2022-12-13T05:34:17;100099.22;;;-3.75;100.00
54978;BME280;40873;47.522;19.106;2022-12-13T05:36:44;100103.44;;;-3.65;100.00
54978;BME280;40873;47.522;19.106;2022-12-13T05:39:11;100101.66;;;-3.62;100.00
54978;BME280;40873;47.522;19.106;2022-12-13T05:41:56;100114.56;;;-3.60;100.00
54978;BME280;40873;47.522;19.106;2022-12-13T05:44:29;100110.34;;;-3.72;100.00
54978;BME280;40873;47.522;19.106;2022-12-13T05:46:57;100107.72;;;-3.64;100.00
54978;BME280;40873;47.522;19.106;2022-12-13T05:49:28;100107.78;;;-3.76;100.00
54978;BME280;40873;47.522;19.106;2022-12-13T05:51:55;100106.13;;;-3.87;100.00
54978;BME280;40873;47.522;19.106;2022-12-13T05:54:21;100104.44;;;-3.88;100.00
54978;BME280;40873;47.522;19.106;2022-12-13T05:56:49;100101.81;;;-3.81;100.00
54978;BME280;40873;47.522;19.106;2022-12-13T05:59:15;100105.25;;;-3.81;100.00
54978;BME280;40873;47.522;19.106;2022-12-13T06:01:42;100112.91;;;-3.70;100.00
54978;BME280;40873;47.522;19.106;2022-12-13T06:04:11;100115.53;;;-3.73;100.00
54978;BME280;40873;47.522;19.106;2022-12-13T06:06:48;100116.47;;;-3.88;100.00
54978;BME280;40873;47.522;19.106;2022-12-13T06:09:17;100115.59;;;-3.87;100.00
54978;BME280;40873;47.522;19.106;2022-12-13T06:11:44;100123.28;;;-3.78;100.00
54978;BME280;40873;47.522;19.106;2022-12-13T06:14:11;100115.56;;;-3.81;100.00
54978;BME280;40873;47.522;19.106;2022-12-13T06:16:52;100119.84;;;-3.75;100.00
54978;BME280;40873;47.522;19.106;2022-12-13T06:19:20;100116.34;;;-3.68;100.00
54978;BME280;40873;47.522;19.106;2022-12-13T06:21:49;100127.53;;;-3.72;100.00
54978;BME280;40873;47.522;19.106;2022-12-13T06:24:17;100128.31;;;-3.63;100.00
54978;BME280;40873;47.522;19.106;2022-12-13T06:26:45;100124.03;;;-3.64;100.00
54978;BME280;40873;47.522;19.106;2022-12-13T06:29:13;100126.66;;;-3.68;100.00
54978;BME280;40873;47.522;19.106;2022-12-13T06:31:56;100130.06;;;-3.63;100.00
54978;BME280;40873;47.522;19.106;2022-12-13T06:34:33;100132.69;;;-3.72;100.00
54978;BME280;40873;47.522;19.106;2022-12-13T06:37:04;100142.13;;;-3.71;100.00
54978;BME280;40873;47.522;19.106;2022-12-13T06:39:31;100144.66;;;-3.64;100.00
54978;BME280;40873;47.522;19.106;2022-12-13T06:42:04;100152.31;;;-3.47;100.00
54978;BME280;40873;47.522;19.106;2022-12-13T06:44:33;100151.47;;;-3.47;100.00
54978;BME280;40873;47.522;19.106;2022-12-13T06:47:00;100158.28;;;-3.42;100.00
54978;BME280;40873;47.522;19.106;2022-12-13T06:49:39;100156.59;;;-3.44;100.00
54978;BME280;40873;47.522;19.106;2022-12-13T06:52:09;100158.28;;;-3.39;100.00
54978;BME280;40873;47.522;19.106;2022-12-13T06:54:38;100163.41;;;-3.37;100.00
54978;BME280;40873;47.522;19.106;2022-12-13T06:57:05;100160.00;;;-3.39;100.00
54978;BME280;40873;47.522;19.106;2022-12-13T06:59:32;100157.44;;;-3.44;100.00
54978;BME280;40873;47.522;19.106;2022-12-13T07:01:59;100164.22;;;-3.31;100.00
54978;BME280;40873;47.522;19.106;2022-12-13T07:04:30;100160.75;;;-3.25;100.00
54978;BME280;40873;47.522;19.106;2022-12-13T07:06:58;100164.13;;;-3.15;100.00
54978;BME280;40873;47.522;19.106;2022-12-13T07:09:29;100170.91;;;-3.07;100.00
54978;BME280;40873;47.522;19.106;2022-12-13T07:11:57;100173.50;;;-3.04;100.00
54978;BME280;40873;47.522;19.106;2022-12-13T07:14:23;100171.88;;;-3.17;100.00
54978;BME280;40873;47.522;19.106;2022-12-13T07:16:51;100178.78;;;-3.22;100.00
54978;BME280;40873;47.522;19.106;2022-12-13T07:19:21;100180.41;;;-3.06;100.00
54978;BME280;40873;47.522;19.106;2022-12-13T07:21:50;100176.81;;;-2.92;100.00
54978;BME280;40873;47.522;19.106;2022-12-13T07:24:17;100182.06;;;-3.00;100.00
54978;BME280;40873;47.522;19.106;2022-12-13T07:26:45;100178.50;;;-2.87;100.00
54978;BME280;40873;47.522;19.106;2022-12-13T07:29:12;100182.00;;;-2.92;100.00
54978;BME280;40873;47.522;19.106;2022-12-13T07:31:48;100189.69;;;-2.86;100.00
54978;BME280;40873;47.522;19.106;2022-12-13T07:34:15;100188.75;;;-2.79;100.00
54978;BME280;40873;47.522;19.106;2022-12-13T07:36:43;100186.22;;;-2.82;100.00
54978;BME280;40873;47.522;19.106;2022-12-13T07:39:10;100191.34;;;-2.78;100.00
54978;BME280;40873;47.522;19.106;2022-12-13T07:41:37;100199.97;;;-2.77;100.00
54978;BME280;40873;47.522;19.106;2022-12-13T07:44:03;100188.75;;;-2.79;100.00
54978;BME280;40873;47.522;19.106;2022-12-13T07:46:31;100190.38;;;-2.66;100.00
54978;BME280;40873;47.522;19.106;2022-12-13T07:49:03;100195.50;;;-2.61;100.00
54978;BME280;40873;47.522;19.106;2022-12-13T07:51:34;100194.56;;;-2.54;100.00
54978;BME280;40873;47.522;19.106;2022-12-13T07:54:01;100192.72;;;-2.40;100.00
54978;BME280;40873;47.522;19.106;2022-12-13T07:56:34;100188.44;;;-2.42;100.00
54978;BME280;40873;47.522;19.106;2022-12-13T07:59:01;100194.47;;;-2.42;100.00
54978;BME280;40873;47.522;19.106;2022-12-13T08:01:30;100192.75;;;-2.44;100.00
54978;BME280;40873;47.522;19.106;2022-12-13T08:03:57;100202.19;;;-2.43;100.00
54978;BME280;40873;47.522;19.106;2022-12-13T08:06:25;100199.63;;;-2.43;100.00
54978;BME280;40873;47.522;19.106;2022-12-13T08:08:56;100196.91;;;-2.31;100.00
54978;BME280;40873;47.522;19.106;2022-12-13T08:11:23;100204.63;;;-2.27;100.00
54978;BME280;40873;47.522;19.106;2022-12-13T08:13:52;100200.34;;;-2.28;100.00
54978;BME280;40873;47.522;19.106;2022-12-13T08:16:19;100214.03;;;-2.19;100.00
54978;BME280;40873;47.522;19.106;2022-12-13T08:18:55;100209.69;;;-2.14;100.00
54978;BME280;40873;47.522;19.106;2022-12-13T08:21:34;100206.19;;;-2.12;100.00
54978;BME280;40873;47.522;19.106;2022-12-13T08:24:23;100209.53;;;-2.01;100.00
54978;BME280;40873;47.522;19.106;2022-12-13T08:26:50;100212.13;;;-2.04;100.00
54978;BME280;40873;47.522;19.106;2022-12-13T08:29:18;100205.16;;;-1.94;100.00
54978;BME280;40873;47.522;19.106;2022-12-13T08:32:01;100203.31;;;-1.86;100.00
54978;BME280;40873;47.522;19.106;2022-12-13T08:34:28;100211.03;;;-1.83;100.00
54978;BME280;40873;47.522;19.106;2022-12-13T08:36:55;100203.16;;;-1.75;100.00
54978;BME280;40873;47.522;19.106;2022-12-13T08:39:33;100210.91;;;-1.72;100.00
54978;BME280;40873;47.522;19.106;2022-12-13T08:42:04;100211.72;;;-1.70;99.92
54978;BME280;40873;47.522;19.106;2022-12-13T08:44:44;100210.06;;;-1.76;98.41
54978;BME280;40873;47.522;19.106;2022-12-13T08:47:11;100207.69;;;-1.92;97.75
54978;BME280;40873;47.522;19.106;2022-12-13T08:49:55;100207.66;;;-1.89;98.66
54978;BME280;40873;47.522;19.106;2022-12-13T08:52:33;100208.47;;;-1.84;98.77
54978;BME280;40873;47.522;19.106;2022-12-13T08:55:09;100203.06;;;-1.68;99.07
54978;BME280;40873;47.522;19.106;2022-12-13T08:57:37;100213.34;;;-1.61;98.18
54978;BME280;40873;47.522;19.106;2022-12-13T09:00:06;100205.59;;;-1.60;97.48
54978;BME280;40873;47.522;19.106;2022-12-13T09:02:34;100198.56;;;-1.52;97.02
54978;BME280;40873;47.522;19.106;2022-12-13T09:05:05;100212.25;;;-1.44;96.65
54978;BME280;40873;47.522;19.106;2022-12-13T09:07:33;100205.19;;;-1.32;95.82
54978;BME280;40873;47.522;19.106;2022-12-13T09:10:10;100207.50;;;-1.14;94.74
54978;BME280;40873;47.522;19.106;2022-12-13T09:12:55;100203.03;;;-1.03;93.57
54978;BME280;40873;47.522;19.106;2022-12-13T09:15:29;100191.72;;;-0.99;93.24
54978;BME280;40873;47.522;19.106;2022-12-13T09:18:01;100206.09;;;-0.79;90.53
54978;BME280;40873;47.522;19.106;2022-12-13T09:20:32;100196.25;;;-0.59;87.40
54978;BME280;40873;47.522;19.106;2022-12-13T09:23:08;100191.56;;;-0.37;87.08
54978;BME280;40873;47.522;19.106;2022-12-13T09:25:56;100192.44;;;0.08;84.92
54978;BME280;40873;47.522;19.106;2022-12-13T09:28:33;100190.53;;;0.57;82.49
54978;BME280;40873;47.522;19.106;2022-12-13T09:31:04;100194.84;;;0.95;80.61
54978;BME280;40873;47.522;19.106;2022-12-13T09:33:32;100191.72;;;1.16;77.83
54978;BME280;40873;47.522;19.106;2022-12-13T09:36:10;100177.03;;;1.49;77.01
54978;BME280;40873;47.522;19.106;2022-12-13T09:38:37;100176.38;;;1.75;74.84
54978;BME280;40873;47.522;19.106;2022-12-13T09:41:18;100170.69;;;1.92;75.15
54978;BME280;40873;47.522;19.106;2022-12-13T09:43:57;100176.81;;;2.20;72.98
54978;BME280;40873;47.522;19.106;2022-12-13T09:46:30;100177.03;;;2.42;69.74
54978;BME280;40873;47.522;19.106;2022-12-13T09:49:32;100176.50;;;2.61;69.28
54978;BME280;40873;47.522;19.106;2022-12-13T09:52:03;100181.59;;;2.92;69.30
54978;BME280;40873;47.522;19.106;2022-12-13T09:54:38;100187.88;;;2.86;68.53
54978;BME280;40873;47.522;19.106;2022-12-13T09:57:19;100182.66;;;2.86;69.08
54978;BME280;40873;47.522;19.106;2022-12-13T10:00:05;100185.53;;;2.77;67.63
54978;BME280;40873;47.522;19.106;2022-12-13T10:02:46;100181.56;;;2.93;66.22
54978;BME280;40873;47.522;19.106;2022-12-13T10:05:35;100172.06;;;2.92;66.31
54978;BME280;40873;47.522;19.106;2022-12-13T10:08:19;100173.50;;;3.01;66.84
54978;BME280;40873;47.522;19.106;2022-12-13T10:10:49;100168.56;;;3.18;64.95
54978;BME280;40873;47.522;19.106;2022-12-13T10:13:20;100161.41;;;3.25;63.62
54978;BME280;40873;47.522;19.106;2022-12-13T10:15:57;100164.97;;;3.22;63.54
54978;BME280;40873;47.522;19.106;2022-12-13T10:18:40;100165.38;;;3.10;63.51
54978;BME280;40873;47.522;19.106;2022-12-13T10:21:12;100162.41;;;2.94;64.61
54978;BME280;40873;47.522;19.106;2022-12-13T10:23:40;100163.88;;;3.29;63.25
54978;BME280;40873;47.522;19.106;2022-12-13T10:26:34;100146.19;;;3.88;61.46
54978;BME280;40873;47.522;19.106;2022-12-13T10:29:03;100148.22;;;3.79;61.55
54978;BME280;40873;47.522;19.106;2022-12-13T10:31:48;100150.28;;;3.95;61.31
54978;BME280;40873;47.522;19.106;2022-12-13T10:34:29;100150.34;;;4.17;60.11
54978;BME280;40873;47.522;19.106;2022-12-13T10:37:29;100142.34;;;4.21;60.14
54978;BME280;40873;47.522;19.106;2022-12-13T10:39:57;100149.13;;;4.71;58.84
54978;BME280;40873;47.522;19.106;2022-12-13T10:42:25;100148.19;;;3.56;59.82
54978;BME280;40873;47.522;19.106;2022-12-13T10:45:15;100149.44;;;4.41;60.16
54978;BME280;40873;47.522;19.106;2022-12-13T10:47:49;100140.44;;;4.92;58.77
54978;BME280;40873;47.522;19.106;2022-12-13T10:50:25;100139.28;;;4.99;56.87
54978;BME280;40873;47.522;19.106;2022-12-13T10:52:54;100135.31;;;5.11;56.92
54978;BME280;40873;47.522;19.106;2022-12-13T10:55:31;100130.53;;;5.42;55.63
54978;BME280;40873;47.522;19.106;2022-12-13T10:58:04;100128.75;;;5.63;55.24
54978;BME280;40873;47.522;19.106;2022-12-13T11:00:36;100122.59;;;5.64;56.04
54978;BME280;40873;47.522;19.106;2022-12-13T11:03:06;100117.38;;;5.83;55.16
54978;BME280;40873;47.522;19.106;2022-12-13T11:05:34;100118.63;;;5.74;55.82
54978;BME280;40873;47.522;19.106;2022-12-13T11:08:31;100122.94;;;5.96;55.44
54978;BME280;40873;47.522;19.106;2022-12-13T11:11:02;100117.44;;;5.82;54.71
54978;BME280;40873;47.522;19.106;2022-12-13T11:13:45;100109.44;;;5.66;53.99
54978;BME280;40873;47.522;19.106;2022-12-13T11:16:28;100113.31;;;5.76;54.57
54978;BME280;40873;47.522;19.106;2022-12-13T11:18:59;100116.66;;;6.19;54.18
54978;BME280;40873;47.522;19.106;2022-12-13T11:21:29;100111.28;;;6.22;54.21
54978;BME280;40873;47.522;19.106;2022-12-13T11:24:01;100114.00;;;6.20;53.97
54978;BME280;40873;47.522;19.106;2022-12-13T11:26:34;100107.59;;;5.68;54.64
54978;BME280;40873;47.522;19.106;2022-12-13T11:29:23;100107.16;;;5.17;54.64
54978;BME280;40873;47.522;19.106;2022-12-13T11:32:12;100102.56;;;5.02;54.52
54978;BME280;40873;47.522;19.106;2022-12-13T11:35:20;100105.78;;;4.21;56.14
54978;BME280;40873;47.522;19.106;2022-12-13T11:38:02;100105.63;;;3.54;58.89
54978;BME280;40873;47.522;19.106;2022-12-13T11:40:40;100099.84;;;3.46;59.77
54978;BME280;40873;47.522;19.106;2022-12-13T11:43:31;100093.16;;;3.14;60.58
54978;BME280;40873;47.522;19.106;2022-12-13T11:46:03;100099.72;;;2.72;60.69
54978;BME280;40873;47.522;19.106;2022-12-13T11:51:07;100098.66;;;2.24;62.85
54978;BME280;40873;47.522;19.106;2022-12-13T11:56:30;100097.72;;;1.65;64.53
54978;BME280;40873;47.522;19.106;2022-12-13T12:02:19;100103.22;;;2.15;63.38
54978;BME280;40873;47.522;19.106;2022-12-13T12:04:53;100087.88;;;2.06;64.63
54978;BME280;40873;47.522;19.106;2022-12-13T12:07:33;100094.09;;;2.02;65.19
54978;BME280;40873;47.522;19.106;2022-12-13T12:10:40;100098.47;;;1.40;66.67
54978;BME280;40873;47.522;19.106;2022-12-13T12:13:23;100095.00;;;1.70;66.64
54978;BME280;40873;47.522;19.106;2022-12-13T12:16:05;100097.16;;;1.85;67.26
54978;BME280;40873;47.522;19.106;2022-12-13T12:18:36;100098.47;;;2.00;67.50
54978;BME280;40873;47.522;19.106;2022-12-13T12:26:24;100101.75;;;2.07;66.06
54978;BME280;40873;47.522;19.106;2022-12-13T12:29:17;100096.59;;;1.76;66.31
54978;BME280;40873;47.522;19.106;2022-12-13T12:42:39;100091.44;;;1.74;68.43
54978;BME280;40873;47.522;19.106;2022-12-13T12:57:14;100081.66;;;1.82;67.80
54978;BME280;40873;47.522;19.106;2022-12-13T12:59:48;100091.22;;;2.11;67.15
54978;BME280;40873;47.522;19.106;2022-12-13T13:02:56;100097.72;;;1.67;68.37
54978;BME280;40873;47.522;19.106;2022-12-13T13:05:36;100097.78;;;1.64;68.40
54978;BME280;40873;47.522;19.106;2022-12-13T13:10:37;100102.28;;;1.25;68.95
54978;BME280;40873;47.522;19.106;2022-12-13T13:14:26;100103.06;;;1.28;69.29
54978;BME280;40873;47.522;19.106;2022-12-13T13:16:36;100105.69;;;1.28;69.48
54978;BME280;40873;47.522;19.106;2022-12-13T13:19:38;100109.78;;;1.37;69.38
54978;BME280;40873;47.522;19.106;2022-12-13T13:21:59;100113.63;;;1.55;68.96
54978;BME280;40873;47.522;19.106;2022-12-13T13:24:32;100117.03;;;1.57;68.92
54978;BME280;40873;47.522;19.106;2022-12-13T13:29:37;100112.00;;;1.51;68.74
54978;BME280;40873;47.522;19.106;2022-12-13T13:37:59;100123.09;;;0.91;69.22
54978;BME280;40873;47.522;19.106;2022-12-13T13:40:33;100132.63;;;1.24;68.94
54978;BME280;40873;47.522;19.106;2022-12-13T13:48:42;100133.53;;;1.23;69.25
54978;BME280;40873;47.522;19.106;2022-12-13T13:54:51;100141.44;;;1.19;68.61
54978;BME280;40873;47.522;19.106;2022-12-13T13:57:36;100133.13;;;1.38;67.85
54978;BME280;40873;47.522;19.106;2022-12-13T14:18:43;100133.88;;;1.09;69.76
54978;BME280;40873;47.522;19.106;2022-12-13T14:24:54;100143.84;;;0.92;69.38
54978;BME280;40873;47.522;19.106;2022-12-13T14:31:19;100136.28;;;0.81;71.76
54978;BME280;40873;47.522;19.106;2022-12-13T14:33:52;100133.53;;;0.88;71.13
54978;BME280;40873;47.522;19.106;2022-12-13T14:36:30;100137.13;;;0.84;70.49
54978;BME280;40873;47.522;19.106;2022-12-13T14:39:04;100139.25;;;0.66;71.75
54978;BME280;40873;47.522;19.106;2022-12-13T14:41:52;100136.84;;;0.94;70.52
54978;BME280;40873;47.522;19.106;2022-12-13T14:44:28;100137.19;;;0.80;70.99
54978;BME280;40873;47.522;19.106;2022-12-13T14:46:58;100145.03;;;0.42;73.40
54978;BME280;40873;47.522;19.106;2022-12-13T14:49:28;100140.13;;;0.28;75.08
54978;BME280;40873;47.522;19.106;2022-12-13T14:52:07;100137.50;;;0.30;75.72
54978;BME280;40873;47.522;19.106;2022-12-13T14:54:58;100138.56;;;0.21;77.29
54978;BME280;40873;47.522;19.106;2022-12-13T14:57:32;100135.72;;;0.32;76.12
54978;BME280;40873;47.522;19.106;2022-12-13T15:00:00;100149.03;;;0.55;74.17
54978;BME280;40873;47.522;19.106;2022-12-13T15:02:30;100141.84;;;0.29;76.74